sensor_id;sensor_type;location;lat;lon;timestamp;pressure;altitude;pressure_sealevel;temperature;humidity
64862;BME280;62652;42.274;-71.436;2023-04-25T00:00:01;101010.0;;;12.722222222222221;100.0
64862;BME280;62652;42.274;-71.436;2023-04-25T00:01:00;101010.0;;;12.722222222222221;100.0
64862;BME280;62652;42.274;-71.436;2023-04-25T00:02:00;101020.0;;;12.611111111111112;100.0
64862;BME280;62652;42.274;-71.436;2023-04-25T00:03:01;101020.0;;;12.611111111111112;100.0
64862;BME280;62652;42.274;-71.436;2023-04-25T00:04:01;101020.0;;;12.5;100.0
64862;BME280;62652;42.274;-71.436;2023-04-25T00:05:01;101020.0;;;12.5;100.0
64862;BME280;62652;42.274;-71.436;2023-04-25T00:06:00;101020.0;;;12.5;100.0
64862;BME280;62652;42.274;-71.436;2023-04-25T00:07:00;101020.0;;;12.5;100.0
64862;BME280;62652;42.274;-71.436;2023-04-25T00:08:00;101030.0;;;12.388888888888888;100.0
64862;BME280;62652;42.274;-71.436;2023-04-25T00:09:01;101030.0;;;12.388888888888888;100.0
64862;BME280;62652;42.274;-71.436;2023-04-25T00:10:01;101030.0;;;12.388888888888888;100.0
64862;BME280;62652;42.274;-71.436;2023-04-25T00:11:00;101030.0;;;12.277777777777779;100.0
64862;BME280;62652;42.274;-71.436;2023-04-25T00:12:01;101030.0;;;12.388888888888888;100.0
64862;BME280;62652;42.274;-71.436;2023-04-25T00:13:00;101030.0;;;12.277777777777779;100.0
64862;BME280;62652;42.274;-71.436;2023-04-25T00:14:01;101030.0;;;12.277777777777779;100.0
64862;BME280;62652;42.274;-71.436;2023-04-25T00:15:01;101030.0;;;12.277777777777779;100.0
64862;BME280;62652;42.274;-71.436;2023-04-25T00:16:01;101040.0;;;12.222222222222221;100.0
64862;BME280;62652;42.274;-71.436;2023-04-25T00:17:01;101030.0;;;12.222222222222221;100.0
64862;BME280;62652;42.274;-71.436;2023-04-25T00:18:00;101040.0;;;12.222222222222221;100.0
64862;BME280;62652;42.274;-71.436;2023-04-25T00:19:01;101040.0;;;12.222222222222221;100.0
64862;BME280;62652;42.274;-71.436;2023-04-25T00:20:01;101040.0;;;12.222222222222221;100.0
64862;BME280;62652;42.274;-71.436;2023-04-25T00:21:01;101040.0;;;12.222222222222221;100.0
64862;BME280;62652;42.274;-71.436;2023-04-25T00:22:00;101050.0;;;12.222222222222221;100.0
64862;BME280;62652;42.274;-71.436;2023-04-25T00:23:01;101050.0;;;12.222222222222221;100.0
64862;BME280;62652;42.274;-71.436;2023-04-25T00:24:01;101050.0;;;12.222222222222221;100.0
64862;BME280;62652;42.274;-71.436;2023-04-25T00:25:00;101050.0;;;12.222222222222221;100.0
64862;BME280;62652;42.274;-71.436;2023-04-25T00:26:01;101050.0;;;12.222222222222221;100.0
64862;BME280;62652;42.274;-71.436;2023-04-25T00:27:00;101060.0;;;12.222222222222221;100.0
64862;BME280;62652;42.274;-71.436;2023-04-25T00:28:00;101060.0;;;12.222222222222221;100.0
64862;BME280;62652;42.274;-71.436;2023-04-25T00:29:01;101060.0;;;12.222222222222221;100.0
64862;BME280;62652;42.274;-71.436;2023-04-25T00:30:00;101060.0;;;12.222222222222221;100.0
64862;BME280;62652;42.274;-71.436;2023-04-25T00:31:01;101070.0;;;12.277777777777779;100.0
64862;BME280;62652;42.274;-71.436;2023-04-25T00:32:01;101060.0;;;12.277777777777779;100.0
64862;BME280;62652;42.274;-71.436;2023-04-25T00:33:00;101060.0;;;12.222222222222221;100.0
64862;BME280;62652;42.274;-71.436;2023-04-25T00:34:01;101070.0;;;12.277777777777779;100.0
64862;BME280;62652;42.274;-71.436;2023-04-25T00:35:01;101070.0;;;12.277777777777779;100.0
64862;BME280;62652;42.274;-71.436;2023-04-25T00:36:01;101070.0;;;12.222222222222221;100.0
64862;BME280;62652;42.274;-71.436;2023-04-25T00:37:01;101070.0;;;12.111111111111109;100.0
64862;BME280;62652;42.274;-71.436;2023-04-25T00:38:01;101070.0;;;12.111111111111109;100.0
64862;BME280;62652;42.274;-71.436;2023-04-25T00:39:01;101070.0;;;12.0;100.0
64862;BME280;62652;42.274;-71.436;2023-04-25T00:40:01;101070.0;;;12.0;100.0
64862;BME280;62652;42.274;-71.436;2023-04-25T00:41:01;101060.0;;;12.0;100.0
64862;BME280;62652;42.274;-71.436;2023-04-25T00:42:02;101070.0;;;11.88888888888889;100.0
64862;BME280;62652;42.274;-71.436;2023-04-25T00:43:01;101070.0;;;11.88888888888889;100.0
64862;BME280;62652;42.274;-71.436;2023-04-25T00:44:03;101070.0;;;11.88888888888889;100.0
64862;BME280;62652;42.274;-71.436;2023-04-25T00:45:01;101080.0;;;11.88888888888889;100.0
64862;BME280;62652;42.274;-71.436;2023-04-25T00:46:01;101080.0;;;11.777777777777779;100.0
64862;BME280;62652;42.274;-71.436;2023-04-25T00:47:02;101080.0;;;11.777777777777779;100.0
64862;BME280;62652;42.274;-71.436;2023-04-25T00:48:01;101080.0;;;11.777777777777779;100.0
64862;BME280;62652;42.274;-71.436;2023-04-25T00:49:01;101080.0;;;11.777777777777779;100.0
64862;BME280;62652;42.274;-71.436;2023-04-25T00:50:00;101090.0;;;11.777777777777779;100.0
64862;BME280;62652;42.274;-71.436;2023-04-25T00:51:01;101090.0;;;11.777777777777779;100.0
64862;BME280;62652;42.274;-71.436;2023-04-25T00:52:01;101090.0;;;11.777777777777779;100.0
64862;BME280;62652;42.274;-71.436;2023-04-25T00:53:01;101090.0;;;11.777777777777779;100.0
64862;BME280;62652;42.274;-71.436;2023-04-25T00:54:01;101090.0;;;11.777777777777779;100.0
64862;BME280;62652;42.274;-71.436;2023-04-25T00:55:01;101090.0;;;11.777777777777779;100.0
64862;BME280;62652;42.274;-71.436;2023-04-25T00:56:00;101090.0;;;11.777777777777779;100.0
64862;BME280;62652;42.274;-71.436;2023-04-25T00:57:01;101090.0;;;11.777777777777779;100.0
64862;BME280;62652;42.274;-71.436;2023-04-25T00:58:01;101090.0;;;11.777777777777779;100.0
64862;BME280;62652;42.274;-71.436;2023-04-25T00:59:01;101090.0;;;11.777777777777779;100.0
64862;BME280;62652;42.274;-71.436;2023-04-25T01:00:01;101090.0;;;11.777777777777779;100.0
64862;BME280;62652;42.274;-71.436;2023-04-25T01:01:01;101100.0;;;11.722222222222221;100.0
64862;BME280;62652;42.274;-71.436;2023-04-25T01:02:01;101100.0;;;11.722222222222221;100.0
64862;BME280;62652;42.274;-71.436;2023-04-25T01:03:00;101100.0;;;11.722222222222221;100.0
64862;BME280;62652;42.274;-71.436;2023-04-25T01:04:01;101100.0;;;11.722222222222221;100.0
64862;BME280;62652;42.274;-71.436;2023-04-25T01:05:01;101100.0;;;11.722222222222221;100.0
64862;BME280;62652;42.274;-71.436;2023-04-25T01:06:01;101100.0;;;11.777777777777779;100.0
64862;BME280;62652;42.274;-71.436;2023-04-25T01:07:01;101100.0;;;11.777777777777779;100.0
64862;BME280;62652;42.274;-71.436;2023-04-25T01:08:01;101100.0;;;11.777777777777779;100.0
64862;BME280;62652;42.274;-71.436;2023-04-25T01:09:01;101100.0;;;11.777777777777779;100.0
64862;BME280;62652;42.274;-71.436;2023-04-25T01:10:01;101100.0;;;11.777777777777779;100.0
64862;BME280;62652;42.274;-71.436;2023-04-25T01:11:01;101100.0;;;11.777777777777779;100.0
64862;BME280;62652;42.274;-71.436;2023-04-25T01:12:01;101110.0;;;11.777777777777779;100.0
64862;BME280;62652;42.274;-71.436;2023-04-25T01:13:01;101110.0;;;11.777777777777779;100.0
64862;BME280;62652;42.274;-71.436;2023-04-25T01:14:01;101110.0;;;11.722222222222221;100.0
64862;BME280;62652;42.274;-71.436;2023-04-25T01:15:01;101110.0;;;11.722222222222221;100.0
64862;BME280;62652;42.274;-71.436;2023-04-25T01:16:02;101120.0;;;11.722222222222221;100.0
64862;BME280;62652;42.274;-71.436;2023-04-25T01:17:01;101120.0;;;11.722222222222221;100.0
64862;BME280;62652;42.274;-71.436;2023-04-25T01:18:01;101120.0;;;11.61111111111111;100.0
64862;BME280;62652;42.274;-71.436;2023-04-25T01:19:00;101120.0;;;11.61111111111111;100.0
64862;BME280;62652;42.274;-71.436;2023-04-25T01:20:03;101120.0;;;11.61111111111111;100.0
64862;BME280;62652;42.274;-71.436;2023-04-25T01:21:07;101120.0;;;11.500000000000002;100.0
64862;BME280;62652;42.274;-71.436;2023-04-25T01:22:01;101120.0;;;11.38888888888889;100.0
64862;BME280;62652;42.274;-71.436;2023-04-25T01:23:01;101120.0;;;11.38888888888889;100.0
64862;BME280;62652;42.274;-71.436;2023-04-25T01:24:01;101120.0;;;11.277777777777777;100.0
64862;BME280;62652;42.274;-71.436;2023-04-25T01:25:01;101120.0;;;11.222222222222223;100.0
64862;BME280;62652;42.274;-71.436;2023-04-25T01:26:01;101120.0;;;11.222222222222223;100.0
64862;BME280;62652;42.274;-71.436;2023-04-25T01:27:02;101120.0;;;11.11111111111111;100.0
64862;BME280;62652;42.274;-71.436;2023-04-25T01:28:00;101120.0;;;11.11111111111111;100.0
64862;BME280;62652;42.274;-71.436;2023-04-25T01:29:01;101120.0;;;10.999999999999998;100.0
64862;BME280;62652;42.274;-71.436;2023-04-25T01:30:01;101120.0;;;10.999999999999998;100.0
64862;BME280;62652;42.274;-71.436;2023-04-25T01:31:01;101120.0;;;10.88888888888889;100.0
64862;BME280;62652;42.274;-71.436;2023-04-25T01:32:01;101120.0;;;10.88888888888889;100.0
64862;BME280;62652;42.274;-71.436;2023-04-25T01:33:01;101120.0;;;10.777777777777779;100.0
64862;BME280;62652;42.274;-71.436;2023-04-25T01:34:01;101120.0;;;10.777777777777779;100.0
64862;BME280;62652;42.274;-71.436;2023-04-25T01:35:01;101130.0;;;10.777777777777779;100.0
64862;BME280;62652;42.274;-71.436;2023-04-25T01:36:01;101130.0;;;10.777777777777779;100.0
64862;BME280;62652;42.274;-71.436;2023-04-25T01:37:01;101130.0;;;10.777777777777779;100.0
64862;BME280;62652;42.274;-71.436;2023-04-25T01:38:01;101130.0;;;10.777777777777779;100.0
64862;BME280;62652;42.274;-71.436;2023-04-25T01:39:01;101140.0;;;10.722222222222221;100.0
64862;BME280;62652;42.274;-71.436;2023-04-25T01:40:01;101140.0;;;10.722222222222221;100.0
64862;BME280;62652;42.274;-71.436;2023-04-25T01:41:01;101140.0;;;10.722222222222221;100.0
64862;BME280;62652;42.274;-71.436;2023-04-25T01:42:01;101140.0;;;10.722222222222221;100.0
64862;BME280;62652;42.274;-71.436;2023-04-25T01:43:01;101140.0;;;10.61111111111111;100.0
64862;BME280;62652;42.274;-71.436;2023-04-25T01:44:01;101140.0;;;10.61111111111111;100.0
64862;BME280;62652;42.274;-71.436;2023-04-25T01:45:01;101140.0;;;10.61111111111111;100.0
64862;BME280;62652;42.274;-71.436;2023-04-25T01:46:01;101140.0;;;10.61111111111111;100.0
64862;BME280;62652;42.274;-71.436;2023-04-25T01:47:01;101140.0;;;10.61111111111111;100.0
64862;BME280;62652;42.274;-71.436;2023-04-25T01:48:01;101140.0;;;10.61111111111111;100.0
64862;BME280;62652;42.274;-71.436;2023-04-25T01:49:01;101140.0;;;10.61111111111111;100.0
64862;BME280;62652;42.274;-71.436;2023-04-25T01:50:00;101140.0;;;10.61111111111111;100.0
64862;BME280;62652;42.274;-71.436;2023-04-25T01:51:01;101140.0;;;10.61111111111111;100.0
64862;BME280;62652;42.274;-71.436;2023-04-25T01:52:01;101140.0;;;10.61111111111111;100.0
64862;BME280;62652;42.274;-71.436;2023-04-25T01:53:01;101140.0;;;10.61111111111111;100.0
64862;BME280;62652;42.274;-71.436;2023-04-25T01:54:01;101130.0;;;10.61111111111111;100.0
64862;BME280;62652;42.274;-71.436;2023-04-25T01:55:02;101140.0;;;10.61111111111111;100.0
64862;BME280;62652;42.274;-71.436;2023-04-25T01:56:01;101140.0;;;10.61111111111111;100.0
64862;BME280;62652;42.274;-71.436;2023-04-25T01:57:01;101140.0;;;10.5;100.0
64862;BME280;62652;42.274;-71.436;2023-04-25T01:58:02;101140.0;;;10.5;100.0
64862;BME280;62652;42.274;-71.436;2023-04-25T01:59:01;101140.0;;;10.5;100.0
64862;BME280;62652;42.274;-71.436;2023-04-25T02:00:03;101140.0;;;10.5;100.0
64862;BME280;62652;42.274;-71.436;2023-04-25T02:01:00;101140.0;;;10.388888888888891;100.0
64862;BME280;62652;42.274;-71.436;2023-04-25T02:02:01;101140.0;;;10.388888888888891;100.0
64862;BME280;62652;42.274;-71.436;2023-04-25T02:03:00;101140.0;;;10.388888888888891;100.0
64862;BME280;62652;42.274;-71.436;2023-04-25T02:04:01;101140.0;;;10.388888888888891;100.0
64862;BME280;62652;42.274;-71.436;2023-04-25T02:05:01;101140.0;;;10.388888888888891;100.0
64862;BME280;62652;42.274;-71.436;2023-04-25T02:06:01;101140.0;;;10.277777777777779;100.0
64862;BME280;62652;42.274;-71.436;2023-04-25T02:07:01;101140.0;;;10.277777777777779;100.0
64862;BME280;62652;42.274;-71.436;2023-04-25T02:08:01;101140.0;;;10.277777777777779;100.0
64862;BME280;62652;42.274;-71.436;2023-04-25T02:09:01;101140.0;;;10.277777777777779;100.0
64862;BME280;62652;42.274;-71.436;2023-04-25T02:10:01;101150.0;;;10.277777777777779;100.0
64862;BME280;62652;42.274;-71.436;2023-04-25T02:11:00;101140.0;;;10.277777777777779;100.0
64862;BME280;62652;42.274;-71.436;2023-04-25T02:12:00;101140.0;;;10.277777777777779;100.0
64862;BME280;62652;42.274;-71.436;2023-04-25T02:13:01;101140.0;;;10.277777777777779;100.0
64862;BME280;62652;42.274;-71.436;2023-04-25T02:14:00;101140.0;;;10.222222222222221;100.0
64862;BME280;62652;42.274;-71.436;2023-04-25T02:15:01;101140.0;;;10.222222222222221;100.0
64862;BME280;62652;42.274;-71.436;2023-04-25T02:16:01;101140.0;;;10.222222222222221;100.0
64862;BME280;62652;42.274;-71.436;2023-04-25T02:17:01;101140.0;;;10.111111111111112;100.0
64862;BME280;62652;42.274;-71.436;2023-04-25T02:18:01;101140.0;;;10.111111111111112;100.0
64862;BME280;62652;42.274;-71.436;2023-04-25T02:19:01;101140.0;;;10.111111111111112;100.0
64862;BME280;62652;42.274;-71.436;2023-04-25T02:20:01;101140.0;;;10.111111111111112;100.0
64862;BME280;62652;42.274;-71.436;2023-04-25T02:21:01;101140.0;;;10.111111111111112;100.0
64862;BME280;62652;42.274;-71.436;2023-04-25T02:22:01;101140.0;;;10.111111111111112;100.0
64862;BME280;62652;42.274;-71.436;2023-04-25T02:23:01;101140.0;;;10.111111111111112;100.0
64862;BME280;62652;42.274;-71.436;2023-04-25T02:24:01;101130.0;;;10.111111111111112;100.0
64862;BME280;62652;42.274;-71.436;2023-04-25T02:25:01;101130.0;;;10.0;100.0
64862;BME280;62652;42.274;-71.436;2023-04-25T02:26:00;101130.0;;;10.0;100.0
64862;BME280;62652;42.274;-71.436;2023-04-25T02:27:01;101130.0;;;9.888888888888888;100.0
64862;BME280;62652;42.274;-71.436;2023-04-25T02:28:00;101130.0;;;9.888888888888888;100.0
64862;BME280;62652;42.274;-71.436;2023-04-25T02:29:00;101130.0;;;9.888888888888888;100.0
64862;BME280;62652;42.274;-71.436;2023-04-25T02:30:01;101130.0;;;9.888888888888888;100.0
64862;BME280;62652;42.274;-71.436;2023-04-25T02:31:01;101130.0;;;9.777777777777779;100.0
64862;BME280;62652;42.274;-71.436;2023-04-25T02:32:01;101130.0;;;9.777777777777779;100.0
64862;BME280;62652;42.274;-71.436;2023-04-25T02:33:01;101130.0;;;9.777777777777779;100.0
64862;BME280;62652;42.274;-71.436;2023-04-25T02:34:01;101130.0;;;9.777777777777779;100.0
64862;BME280;62652;42.274;-71.436;2023-04-25T02:35:01;101130.0;;;9.722222222222221;100.0
64862;BME280;62652;42.274;-71.436;2023-04-25T02:36:00;101130.0;;;9.777777777777779;100.0
64862;BME280;62652;42.274;-71.436;2023-04-25T02:37:00;101130.0;;;9.777777777777779;100.0
64862;BME280;62652;42.274;-71.436;2023-04-25T02:38:01;101130.0;;;9.777777777777779;100.0
64862;BME280;62652;42.274;-71.436;2023-04-25T02:39:01;101130.0;;;9.777777777777779;100.0
64862;BME280;62652;42.274;-71.436;2023-04-25T02:40:01;101130.0;;;9.777777777777779;100.0
64862;BME280;62652;42.274;-71.436;2023-04-25T02:41:01;101130.0;;;9.722222222222221;100.0
64862;BME280;62652;42.274;-71.436;2023-04-25T02:42:01;101130.0;;;9.722222222222221;100.0
64862;BME280;62652;42.274;-71.436;2023-04-25T02:43:01;101130.0;;;9.722222222222221;100.0
64862;BME280;62652;42.274;-71.436;2023-04-25T02:44:00;101130.0;;;9.611111111111109;100.0
64862;BME280;62652;42.274;-71.436;2023-04-25T02:45:01;101130.0;;;9.611111111111109;100.0
64862;BME280;62652;42.274;-71.436;2023-04-25T02:46:00;101130.0;;;9.611111111111109;100.0
64862;BME280;62652;42.274;-71.436;2023-04-25T02:47:00;101130.0;;;9.611111111111109;100.0
64862;BME280;62652;42.274;-71.436;2023-04-25T02:48:02;101130.0;;;9.611111111111109;100.0
64862;BME280;62652;42.274;-71.436;2023-04-25T02:49:01;101130.0;;;9.611111111111109;100.0
64862;BME280;62652;42.274;-71.436;2023-04-25T02:50:00;101130.0;;;9.611111111111109;100.0
64862;BME280;62652;42.274;-71.436;2023-04-25T02:51:00;101130.0;;;9.5;100.0
64862;BME280;62652;42.274;-71.436;2023-04-25T02:52:01;101130.0;;;9.5;100.0
64862;BME280;62652;42.274;-71.436;2023-04-25T02:53:01;101130.0;;;9.5;100.0
64862;BME280;62652;42.274;-71.436;2023-04-25T02:54:01;101130.0;;;9.38888888888889;100.0
64862;BME280;62652;42.274;-71.436;2023-04-25T02:55:01;101130.0;;;9.38888888888889;100.0
64862;BME280;62652;42.274;-71.436;2023-04-25T02:56:01;101130.0;;;9.38888888888889;100.0
64862;BME280;62652;42.274;-71.436;2023-04-25T02:57:00;101130.0;;;9.38888888888889;100.0
64862;BME280;62652;42.274;-71.436;2023-04-25T02:58:01;101130.0;;;9.38888888888889;100.0
64862;BME280;62652;42.274;-71.436;2023-04-25T02:59:00;101130.0;;;9.38888888888889;100.0
64862;BME280;62652;42.274;-71.436;2023-04-25T03:00:00;101130.0;;;9.38888888888889;100.0
64862;BME280;62652;42.274;-71.436;2023-04-25T03:01:01;101130.0;;;9.38888888888889;100.0
64862;BME280;62652;42.274;-71.436;2023-04-25T03:02:01;101130.0;;;9.38888888888889;100.0
64862;BME280;62652;42.274;-71.436;2023-04-25T03:03:01;101130.0;;;9.38888888888889;100.0
64862;BME280;62652;42.274;-71.436;2023-04-25T03:04:01;101130.0;;;9.38888888888889;100.0
64862;BME280;62652;42.274;-71.436;2023-04-25T03:05:01;101130.0;;;9.38888888888889;100.0
64862;BME280;62652;42.274;-71.436;2023-04-25T03:06:01;101130.0;;;9.277777777777779;100.0
64862;BME280;62652;42.274;-71.436;2023-04-25T03:07:01;101130.0;;;9.277777777777779;100.0
64862;BME280;62652;42.274;-71.436;2023-04-25T03:08:01;101130.0;;;9.277777777777779;100.0
64862;BME280;62652;42.274;-71.436;2023-04-25T03:09:01;101130.0;;;9.277777777777779;100.0
64862;BME280;62652;42.274;-71.436;2023-04-25T03:10:00;101130.0;;;9.277777777777779;100.0
64862;BME280;62652;42.274;-71.436;2023-04-25T03:11:01;101130.0;;;9.277777777777779;100.0
64862;BME280;62652;42.274;-71.436;2023-04-25T03:12:00;101130.0;;;9.277777777777779;100.0
64862;BME280;62652;42.274;-71.436;2023-04-25T03:13:01;101130.0;;;9.277777777777779;100.0
64862;BME280;62652;42.274;-71.436;2023-04-25T03:14:00;101130.0;;;9.222222222222221;100.0
64862;BME280;62652;42.274;-71.436;2023-04-25T03:15:01;101130.0;;;9.222222222222221;100.0
64862;BME280;62652;42.274;-71.436;2023-04-25T03:16:01;101130.0;;;9.222222222222221;100.0
64862;BME280;62652;42.274;-71.436;2023-04-25T03:17:01;101130.0;;;9.222222222222221;100.0
64862;BME280;62652;42.274;-71.436;2023-04-25T03:18:01;101130.0;;;9.222222222222221;100.0
64862;BME280;62652;42.274;-71.436;2023-04-25T03:19:01;101130.0;;;9.222222222222221;100.0
64862;BME280;62652;42.274;-71.436;2023-04-25T03:20:01;101140.0;;;9.11111111111111;100.0
64862;BME280;62652;42.274;-71.436;2023-04-25T03:21:00;101140.0;;;9.11111111111111;100.0
64862;BME280;62652;42.274;-71.436;2023-04-25T03:22:00;101140.0;;;9.11111111111111;100.0
64862;BME280;62652;42.274;-71.436;2023-04-25T03:23:01;101140.0;;;9.11111111111111;100.0
64862;BME280;62652;42.274;-71.436;2023-04-25T03:24:02;101140.0;;;9.11111111111111;100.0
64862;BME280;62652;42.274;-71.436;2023-04-25T03:25:01;101150.0;;;9.11111111111111;100.0
64862;BME280;62652;42.274;-71.436;2023-04-25T03:26:00;101140.0;;;9.11111111111111;100.0
64862;BME280;62652;42.274;-71.436;2023-04-25T03:27:01;101150.0;;;9.11111111111111;100.0
64862;BME280;62652;42.274;-71.436;2023-04-25T03:28:01;101150.0;;;9.11111111111111;100.0
64862;BME280;62652;42.274;-71.436;2023-04-25T03:29:01;101150.0;;;9.000000000000002;100.0
64862;BME280;62652;42.274;-71.436;2023-04-25T03:30:01;101150.0;;;9.000000000000002;100.0
64862;BME280;62652;42.274;-71.436;2023-04-25T03:31:00;101150.0;;;9.000000000000002;100.0
64862;BME280;62652;42.274;-71.436;2023-04-25T03:32:01;101150.0;;;9.000000000000002;100.0
64862;BME280;62652;42.274;-71.436;2023-04-25T03:33:01;101160.0;;;9.000000000000002;100.0
64862;BME280;62652;42.274;-71.436;2023-04-25T03:34:00;101160.0;;;9.000000000000002;100.0
64862;BME280;62652;42.274;-71.436;2023-04-25T03:35:00;101160.0;;;9.11111111111111;100.0
64862;BME280;62652;42.274;-71.436;2023-04-25T03:36:01;101160.0;;;9.11111111111111;100.0
64862;BME280;62652;42.274;-71.436;2023-04-25T03:37:01;101160.0;;;9.11111111111111;100.0
64862;BME280;62652;42.274;-71.436;2023-04-25T03:38:01;101160.0;;;9.11111111111111;100.0
64862;BME280;62652;42.274;-71.436;2023-04-25T03:39:00;101160.0;;;9.222222222222221;100.0
64862;BME280;62652;42.274;-71.436;2023-04-25T03:40:01;101160.0;;;9.11111111111111;100.0
64862;BME280;62652;42.274;-71.436;2023-04-25T03:41:01;101160.0;;;9.11111111111111;100.0
64862;BME280;62652;42.274;-71.436;2023-04-25T03:42:01;101160.0;;;9.11111111111111;100.0
64862;BME280;62652;42.274;-71.436;2023-04-25T03:43:00;101160.0;;;9.11111111111111;100.0
64862;BME280;62652;42.274;-71.436;2023-04-25T03:44:00;101160.0;;;9.11111111111111;100.0
64862;BME280;62652;42.274;-71.436;2023-04-25T03:45:00;101170.0;;;9.11111111111111;100.0
64862;BME280;62652;42.274;-71.436;2023-04-25T03:46:01;101170.0;;;9.000000000000002;100.0
64862;BME280;62652;42.274;-71.436;2023-04-25T03:47:01;101170.0;;;9.11111111111111;100.0
64862;BME280;62652;42.274;-71.436;2023-04-25T03:48:00;101170.0;;;9.11111111111111;100.0
64862;BME280;62652;42.274;-71.436;2023-04-25T03:49:01;101170.0;;;9.11111111111111;100.0
64862;BME280;62652;42.274;-71.436;2023-04-25T03:50:00;101170.0;;;9.000000000000002;100.0
64862;BME280;62652;42.274;-71.436;2023-04-25T03:51:00;101180.0;;;9.000000000000002;100.0
64862;BME280;62652;42.274;-71.436;2023-04-25T03:52:01;101180.0;;;9.000000000000002;100.0
64862;BME280;62652;42.274;-71.436;2023-04-25T03:53:01;101180.0;;;9.000000000000002;100.0
64862;BME280;62652;42.274;-71.436;2023-04-25T03:54:01;101180.0;;;9.000000000000002;100.0
64862;BME280;62652;42.274;-71.436;2023-04-25T03:55:00;101180.0;;;9.000000000000002;100.0
64862;BME280;62652;42.274;-71.436;2023-04-25T03:56:00;101190.0;;;9.000000000000002;100.0
64862;BME280;62652;42.274;-71.436;2023-04-25T03:57:00;101190.0;;;9.11111111111111;100.0
64862;BME280;62652;42.274;-71.436;2023-04-25T03:58:01;101190.0;;;9.11111111111111;100.0
64862;BME280;62652;42.274;-71.436;2023-04-25T03:59:01;101190.0;;;9.000000000000002;100.0
64862;BME280;62652;42.274;-71.436;2023-04-25T04:00:01;101190.0;;;9.000000000000002;100.0
64862;BME280;62652;42.274;-71.436;2023-04-25T04:01:01;101190.0;;;9.000000000000002;100.0
64862;BME280;62652;42.274;-71.436;2023-04-25T04:02:01;101190.0;;;9.000000000000002;100.0
64862;BME280;62652;42.274;-71.436;2023-04-25T04:03:01;101200.0;;;9.000000000000002;100.0
64862;BME280;62652;42.274;-71.436;2023-04-25T04:04:01;101200.0;;;9.000000000000002;100.0
64862;BME280;62652;42.274;-71.436;2023-04-25T04:05:00;101200.0;;;9.000000000000002;100.0
64862;BME280;62652;42.274;-71.436;2023-04-25T04:06:01;101200.0;;;8.88888888888889;100.0
64862;BME280;62652;42.274;-71.436;2023-04-25T04:07:01;101200.0;;;8.88888888888889;100.0
64862;BME280;62652;42.274;-71.436;2023-04-25T04:08:00;101200.0;;;8.88888888888889;100.0
64862;BME280;62652;42.274;-71.436;2023-04-25T04:09:00;101200.0;;;8.88888888888889;100.0
64862;BME280;62652;42.274;-71.436;2023-04-25T04:10:00;101190.0;;;8.88888888888889;100.0
64862;BME280;62652;42.274;-71.436;2023-04-25T04:11:01;101200.0;;;8.88888888888889;100.0
64862;BME280;62652;42.274;-71.436;2023-04-25T04:12:00;101200.0;;;8.88888888888889;100.0
64862;BME280;62652;42.274;-71.436;2023-04-25T04:13:01;101200.0;;;8.88888888888889;100.0
64862;BME280;62652;42.274;-71.436;2023-04-25T04:14:00;101200.0;;;8.88888888888889;100.0
64862;BME280;62652;42.274;-71.436;2023-04-25T04:15:01;101200.0;;;8.88888888888889;100.0
64862;BME280;62652;42.274;-71.436;2023-04-25T04:16:00;101200.0;;;8.88888888888889;100.0
64862;BME280;62652;42.274;-71.436;2023-04-25T04:17:01;101200.0;;;8.88888888888889;100.0
64862;BME280;62652;42.274;-71.436;2023-04-25T04:18:00;101200.0;;;8.88888888888889;100.0
64862;BME280;62652;42.274;-71.436;2023-04-25T04:19:02;101190.0;;;8.88888888888889;100.0
64862;BME280;62652;42.274;-71.436;2023-04-25T04:20:01;101200.0;;;8.88888888888889;100.0
64862;BME280;62652;42.274;-71.436;2023-04-25T04:21:01;101190.0;;;8.88888888888889;100.0
64862;BME280;62652;42.274;-71.436;2023-04-25T04:22:01;101200.0;;;8.88888888888889;100.0
64862;BME280;62652;42.274;-71.436;2023-04-25T04:23:01;101200.0;;;8.88888888888889;100.0
64862;BME280;62652;42.274;-71.436;2023-04-25T04:24:01;101200.0;;;8.88888888888889;100.0
64862;BME280;62652;42.274;-71.436;2023-04-25T04:25:01;101200.0;;;8.88888888888889;100.0
64862;BME280;62652;42.274;-71.436;2023-04-25T04:26:01;101200.0;;;8.88888888888889;100.0
64862;BME280;62652;42.274;-71.436;2023-04-25T04:27:00;101200.0;;;8.88888888888889;100.0
64862;BME280;62652;42.274;-71.436;2023-04-25T04:28:01;101200.0;;;8.88888888888889;100.0
64862;BME280;62652;42.274;-71.436;2023-04-25T04:29:01;101200.0;;;8.88888888888889;100.0